Time;durP1;ratioP1;P1;durP2;ratioP2;P2;SDS_P1;SDS_P2;PMS_P1;PMS_P2;Temp;Humidity;BMP_temperature;BMP_pressure;BME280_temperature;BME280_humidity;BME280_pressure;Samples;Min_cycle;Max_cycle;Signal;HPM_P1;HPM_P2
2023/06/06 00:01:54;;;;;;;2.50;1.80;;;;;;;15.22;nan;61053.41;4995215;28;20220;-64
2023/06/06 00:04:19;;;;;;;2.00;1.60;;;;;;;15.24;nan;61127.72;4994767;28;20204;-62
2023/06/06 00:06:45;;;;;;;2.13;1.50;;;;;;;14.88;nan;60987.97;4994870;28;20637;-63
2023/06/06 00:09:11;;;;;;;1.80;1.60;;;;;;;15.20;nan;61177.25;4994335;28;20169;-64
2023/06/06 00:11:39;;;;;;;4.47;1.48;;;;;;;14.87;nan;60976.00;4994772;28;20183;-63
2023/06/06 00:14:07;;;;;;;2.92;1.60;;;;;;;15.08;nan;61392.69;4994548;28;20203;-62
2023/06/06 00:16:34;;;;;;;7.68;1.75;;;;;;;14.84;nan;61072.91;4994647;28;20177;-63
2023/06/06 00:19:00;;;;;;;1.85;1.50;;;;;;;14.93;nan;61162.78;4994373;28;20207;-63
2023/06/06 00:21:27;;;;;;;2.50;1.67;;;;;;;15.17;nan;61004.59;4994590;28;20180;-64
2023/06/06 00:23:54;;;;;;;3.15;1.58;;;;;;;14.93;nan;61029.63;4994346;28;20200;-62
2023/06/06 00:26:20;;;;;;;1.70;1.48;;;;;;;15.07;nan;61046.81;4994681;28;20181;-64
2023/06/06 00:28:45;;;;;;;2.22;1.80;;;;;;;15.11;nan;61059.03;4994540;28;20174;-64
2023/06/06 00:31:11;;;;;;;1.70;1.50;;;;;;;14.79;nan;61080.13;4993759;28;20177;-63
2023/06/06 00:33:36;;;;;;;2.95;1.90;;;;;;;15.09;nan;61033.63;4994223;28;20247;-63
2023/06/06 00:36:02;;;;;;;2.75;1.70;;;;;;;15.04;nan;61116.59;4994417;28;20165;-63
2023/06/06 00:38:28;;;;;;;1.83;1.60;;;;;;;14.99;nan;61004.91;4993839;28;20172;-63
2023/06/06 00:40:53;;;;;;;1.75;1.50;;;;;;;14.71;nan;61236.22;4994206;28;20256;-63
2023/06/06 00:43:19;;;;;;;2.30;1.70;;;;;;;14.90;nan;61075.09;4993883;28;20172;-64
2023/06/06 00:45:45;;;;;;;2.15;1.95;;;;;;;14.98;nan;60994.06;4994200;28;20172;-63
2023/06/06 00:48:10;;;;;;;2.45;1.80;;;;;;;14.94;nan;60994.72;4993996;28;20205;-63
2023/06/06 00:50:36;;;;;;;4.07;2.00;;;;;;;14.84;nan;60977.75;4994059;28;20628;-62
2023/06/06 00:53:03;;;;;;;2.60;1.85;;;;;;;14.91;nan;61194.53;4993764;28;20211;-63
2023/06/06 00:55:31;;;;;;;5.10;2.10;;;;;;;14.71;nan;60921.97;4993945;28;20172;-62
2023/06/06 00:57:59;;;;;;;4.97;1.70;;;;;;;14.67;nan;60961.75;4993835;28;20184;-63
2023/06/06 01:00:27;;;;;;;2.15;1.90;;;;;;;14.91;nan;60981.06;4993649;28;20216;-62
2023/06/06 01:02:53;;;;;;;2.85;1.80;;;;;;;14.65;nan;61064.91;4993900;28;20161;-63
2023/06/06 01:05:19;;;;;;;3.22;1.95;;;;;;;14.49;nan;60990.91;4993717;28;20180;-63
2023/06/06 01:07:47;;;;;;;3.58;2.13;;;;;;;14.79;nan;60885.28;4993460;28;20180;-63
2023/06/06 01:10:13;;;;;;;6.13;2.25;;;;;;;14.75;nan;60905.94;4993643;28;20185;-63
2023/06/06 01:13:06;;;;;;;4.22;2.10;;;;;;;14.81;nan;60915.22;4993180;28;20586;-63
2023/06/06 01:15:42;;;;;;;3.03;2.10;;;;;;;14.61;nan;60862.47;4993596;28;20173;-63
2023/06/06 01:18:09;;;;;;;5.25;2.30;;;;;;;14.74;nan;60925.38;4993173;28;20169;-63
2023/06/06 01:20:35;;;;;;;2.80;2.20;;;;;;;14.66;nan;60960.63;4993349;28;20172;-63
2023/06/06 01:23:01;;;;;;;3.00;2.05;;;;;;;14.62;nan;60845.03;4993463;28;20168;-64
2023/06/06 01:25:27;;;;;;;3.03;2.05;;;;;;;14.80;nan;60824.66;4993405;28;20263;-62
2023/06/06 01:27:56;;;;;;;4.13;1.95;;;;;;;12.09;nan;60636.81;4993156;28;20251;-63
2023/06/06 01:30:25;;;;;;;3.95;2.17;;;;;;;14.76;nan;60804.75;4992909;28;20219;-62
2023/06/06 01:33:15;;;;;;;5.47;2.00;;;;;;;14.85;nan;60830.28;4993748;28;20311;-63
2023/06/06 01:36:22;;;;;;;1.95;1.70;;;;;;;14.80;nan;60827.25;4993350;28;20172;-63
2023/06/06 01:38:55;;;;;;;4.80;2.17;;;;;;;14.74;nan;60779.38;5010188;28;20172;-64
2023/06/06 01:41:23;;;;;;;3.80;1.92;;;;;;;14.79;nan;60792.16;5010245;28;20184;-63
2023/06/06 01:43:51;;;;;;;3.28;2.00;;;;;;;14.50;nan;60816.69;5000364;28;20188;-64
2023/06/06 01:46:19;;;;;;;4.90;2.10;;;;;;;14.74;nan;60704.81;4992874;28;20195;-64
2023/06/06 01:48:45;;;;;;;2.72;2.08;;;;;;;14.64;nan;60888.41;4992971;28;20214;-64
2023/06/06 01:51:11;;;;;;;3.00;1.75;;;;;;;14.53;nan;60696.69;4992648;28;20165;-63
2023/06/06 01:53:37;;;;;;;4.60;2.35;;;;;;;14.72;nan;60655.72;4992458;28;20199;-63
2023/06/06 01:56:02;;;;;;;4.50;1.92;;;;;;;14.78;nan;60757.59;4992795;28;20187;-63
2023/06/06 01:58:28;;;;;;;2.92;2.20;;;;;;;14.47;nan;60679.72;4992910;28;20247;-63
2023/06/06 02:00:53;;;;;;;3.83;2.40;;;;;;;14.68;nan;60666.69;4992747;28;20219;-63
2023/06/06 02:03:20;;;;;;;3.38;2.28;;;;;;;14.74;nan;60697.13;4992449;28;20200;-62
2023/06/06 02:05:46;;;;;;;4.60;2.55;;;;;;;14.50;nan;60695.91;4992453;28;20534;-63
2023/06/06 02:08:11;;;;;;;6.18;2.63;;;;;;;14.58;nan;60820.53;4992601;28;20179;-64
2023/06/06 02:10:37;;;;;;;5.13;2.30;;;;;;;14.65;nan;60560.50;4992988;28;20238;-63
2023/06/06 02:13:02;;;;;;;4.20;2.25;;;;;;;14.39;nan;60529.41;4991263;28;20217;-62
2023/06/06 02:15:29;;;;;;;3.92;2.15;;;;;;;14.72;nan;60442.94;4992262;28;20624;-62
2023/06/06 02:17:55;;;;;;;2.40;2.13;;;;;;;14.41;nan;60434.56;4992347;28;20577;-63
2023/06/06 02:20:20;;;;;;;4.25;1.98;;;;;;;14.61;nan;60458.38;4992285;28;20164;-62
2023/06/06 02:22:46;;;;;;;2.78;2.20;;;;;;;14.61;nan;60340.69;4992223;28;20171;-64
2023/06/06 02:25:12;;;;;;;5.38;2.20;;;;;;;14.36;nan;60323.09;4992022;28;20177;-62
2023/06/06 02:27:38;;;;;;;5.35;2.10;;;;;;;14.33;nan;60358.28;4992229;28;20552;-63
2023/06/06 02:30:06;;;;;;;2.92;2.38;;;;;;;14.41;nan;60324.09;4992210;28;20173;-63
2023/06/06 02:32:32;;;;;;;2.42;1.83;;;;;;;14.54;nan;60186.97;4992153;28;20208;-63
2023/06/06 02:35:01;;;;;;;4.55;2.15;;;;;;;14.52;nan;60063.97;4991617;28;20169;-64
2023/06/06 02:37:30;;;;;;;4.00;2.28;;;;;;;14.45;nan;60150.72;4992054;28;20205;-63
2023/06/06 02:39:55;;;;;;;2.38;2.10;;;;;;;14.13;nan;59499.41;4992024;28;20651;-63
2023/06/06 02:42:21;;;;;;;3.72;1.75;;;;;;;14.35;nan;59115.28;4992078;28;20173;-63
2023/06/06 02:44:46;;;;;;;3.58;1.90;;;;;;;14.40;nan;59262.03;4992166;28;20217;-63
2023/06/06 02:47:12;;;;;;;3.13;2.05;;;;;;;14.48;nan;59085.84;4992232;28;20700;-63
2023/06/06 02:49:37;;;;;;;5.45;2.20;;;;;;;14.40;nan;59192.69;4992149;28;20169;-64
2023/06/06 02:52:02;;;;;;;3.05;1.90;;;;;;;;;;4992863;28;20188;-63
2023/06/06 02:54:28;;;;;;;2.88;1.90;;;;;;;14.27;nan;58648.94;4995428;28;20213;-65
2023/06/06 02:56:53;;;;;;;4.13;2.08;;;;;;;14.57;nan;58836.25;4996080;28;20177;-64
2023/06/06 02:59:18;;;;;;;4.30;2.10;;;;;;;15.08;nan;59466.16;4996083;28;20169;-63
2023/06/06 03:01:44;;;;;;;2.92;1.92;;;;;;;15.47;nan;60240.47;4995667;28;20224;-64
2023/06/06 03:04:13;;;;;;;2.22;2.00;;;;;;;16.36;nan;60737.44;4995553;28;20188;-62
2023/06/06 03:06:39;;;;;;;3.85;2.33;;;;;;;17.03;nan;61031.34;4995967;28;20171;-64
2023/06/06 03:09:05;;;;;;;2.58;2.03;;;;;;;17.41;nan;61076.13;4995904;28;20180;-64
2023/06/06 03:11:31;;;;;;;2.88;2.13;;;;;;;18.28;nan;61377.28;4996122;28;20176;-64
2023/06/06 03:13:57;;;;;;;3.15;1.80;;;;;;;19.01;nan;61608.91;4996349;28;20197;-63
2023/06/06 03:16:26;;;;;;;2.83;2.05;;;;;;;19.72;nan;61548.31;4995619;28;20172;-64
2023/06/06 03:18:52;;;;;;;5.78;1.80;;;;;;;20.50;nan;61783.50;4995223;28;20722;-63
2023/06/06 03:21:19;;;;;;;3.60;1.67;;;;;;;21.58;nan;61835.47;4995681;28;20176;-64
2023/06/06 03:23:45;;;;;;;5.07;1.73;;;;;;;22.52;nan;61992.09;4989513;28;20169;-63
2023/06/06 03:26:10;;;;;;;4.75;1.85;;;;;;;22.95;nan;62050.91;4995706;28;20200;-64
2023/06/06 03:28:36;;;;;;;4.53;1.88;;;;;;;23.48;nan;62183.75;4995229;28;20334;-65
2023/06/06 03:31:06;;;;;;;2.25;1.60;;;;;;;24.20;nan;62101.38;4995511;28;20212;-65
2023/06/06 03:33:32;;;;;;;1.83;1.55;;;;;;;25.14;nan;62271.59;4995320;28;20287;-65
2023/06/06 03:35:58;;;;;;;1.90;1.50;;;;;;;25.74;nan;62455.25;5010433;28;20576;-64
2023/06/06 03:38:23;;;;;;;1.98;1.20;;;;;;;26.11;nan;62525.25;4995447;28;20173;-64
2023/06/06 03:40:49;;;;;;;1.45;1.27;;;;;;;26.82;nan;62645.28;4995459;28;20188;-64
2023/06/06 03:43:14;;;;;;;2.78;1.70;;;;;;;27.45;nan;62556.22;4995313;28;20714;-64
2023/06/06 03:45:40;;;;;;;2.33;1.50;;;;;;;28.09;nan;62737.25;4995322;28;20320;-65
2023/06/06 03:48:09;;;;;;;2.70;1.40;;;;;;;28.41;nan;62731.31;4994922;28;20251;-64
2023/06/06 03:50:34;;;;;;;1.73;1.50;;;;;;;28.68;nan;62940.56;4995389;28;20173;-65
2023/06/06 03:53:00;;;;;;;1.50;1.30;;;;;;;29.13;nan;62877.97;4994919;28;20193;-64
2023/06/06 03:55:26;;;;;;;1.75;1.48;;;;;;;29.29;nan;62901.59;4994723;28;20187;-64
2023/06/06 03:57:52;;;;;;;3.63;1.30;;;;;;;29.60;nan;62881.88;4994774;28;20184;-64
2023/06/06 04:00:18;;;;;;;2.33;1.60;;;;;;;29.05;nan;62987.81;4994801;28;20216;-65
2023/06/06 04:02:46;;;;;;;3.13;1.83;;;;;;;29.90;nan;63015.97;4993903;28;20242;-65
2023/06/06 04:05:12;;;;;;;2.55;1.67;;;;;;;29.85;nan;62955.41;4993611;28;20270;-65
2023/06/06 04:07:38;;;;;;;3.00;2.10;;;;;;;30.02;nan;63037.66;4995054;28;20169;-65
2023/06/06 04:10:04;;;;;;;2.92;1.98;;;;;;;30.33;nan;63032.59;4994968;28;20518;-65
2023/06/06 04:12:29;;;;;;;4.07;1.88;;;;;;;29.35;nan;62716.28;4994580;28;20188;-63
2023/06/06 04:14:54;;;;;;;3.10;1.77;;;;;;;29.19;nan;62834.81;4994510;28;20168;-65
2023/06/06 04:17:21;;;;;;;3.42;2.30;;;;;;;29.64;nan;62939.19;4994407;28;20173;-65
2023/06/06 04:19:47;;;;;;;5.50;2.00;;;;;;;30.14;nan;63016.59;4994480;28;20184;-64
2023/06/06 04:22:15;;;;;;;3.33;2.05;;;;;;;25.27;nan;64511.41;4994214;28;20176;-65
2023/06/06 04:24:40;;;;;;;3.97;1.90;;;;;;;29.68;nan;63028.13;4994409;28;20180;-69
2023/06/06 04:27:07;;;;;;;2.45;1.80;;;;;;;29.69;nan;62897.50;4994424;28;20176;-67
2023/06/06 04:29:33;;;;;;;3.67;2.15;;;;;;;29.33;nan;62977.31;4994423;28;20181;-68
2023/06/06 04:32:03;;;;;;;2.20;1.80;;;;;;;29.32;nan;62789.19;4994226;28;20255;-67
2023/06/06 04:34:33;;;;;;;3.30;1.98;;;;;;;28.67;nan;62876.28;4993802;28;20299;-67
2023/06/06 04:37:05;;;;;;;2.40;1.90;;;;;;;28.83;nan;62747.31;4986424;28;20557;-67
2023/06/06 04:39:32;;;;;;;2.70;1.98;;;;;;;28.82;nan;62793.53;4993915;28;20172;-68
2023/06/06 04:41:58;;;;;;;2.00;1.80;;;;;;;28.04;nan;62754.59;4984166;28;20668;-66
2023/06/06 04:44:27;;;;;;;2.25;1.65;;;;;;;26.63;nan;62463.59;4987622;28;20311;-67
2023/06/06 04:47:00;;;;;;;3.28;2.00;;;;;;;25.50;nan;62328.34;4992256;28;20199;-67
2023/06/06 04:49:35;;;;;;;3.10;1.60;;;;;;;24.67;nan;62125.00;4979284;28;20195;-67
2023/06/06 04:52:18;;;;;;;2.63;1.90;;;;;;;24.46;nan;62205.63;4993775;28;20169;-66
2023/06/06 04:54:45;;;;;;;2.05;1.80;;;;;;;24.19;nan;62170.19;4984524;28;20324;-64
2023/06/06 04:57:19;;;;;;;3.90;2.70;;;;;;;23.79;nan;62127.75;4988793;28;20177;-65
2023/06/06 04:59:52;;;;;;;1.75;1.45;;;;;;;23.85;nan;62074.00;4991340;28;20267;-65
2023/06/06 05:02:22;;;;;;;1.60;1.50;;;;;;;24.02;nan;62106.41;4992993;28;20188;-63
2023/06/06 05:04:52;;;;;;;2.10;1.60;;;;;;;24.54;nan;62157.81;4991257;28;20184;-64
2023/06/06 05:07:18;;;;;;;2.22;1.73;;;;;;;24.97;nan;62253.31;4991113;28;20239;-64
2023/06/06 05:09:43;;;;;;;2.67;1.77;;;;;;;23.79;nan;62140.81;4993101;28;20184;-63
2023/06/06 05:12:09;;;;;;;2.42;1.88;;;;;;;23.85;nan;62217.56;4984530;28;20185;-63
2023/06/06 05:14:34;;;;;;;2.05;1.50;;;;;;;23.93;nan;62109.22;4983066;28;20275;-65
2023/06/06 05:17:00;;;;;;;4.40;2.05;;;;;;;23.08;nan;62006.31;4987840;28;20247;-63
2023/06/06 05:19:25;;;;;;;2.90;1.65;;;;;;;21.74;nan;61957.09;4988387;28;20184;-65
2023/06/06 05:21:51;;;;;;;3.10;2.05;;;;;;;21.33;nan;61725.91;4984226;28;20675;-64
2023/06/06 05:24:16;;;;;;;2.53;1.60;;;;;;;21.23;nan;61774.34;4982707;28;20188;-65
2023/06/06 05:26:42;;;;;;;2.50;1.58;;;;;;;21.54;nan;61804.34;4990516;28;20184;-64
2023/06/06 05:29:08;;;;;;;3.38;1.80;;;;;;;21.96;nan;61895.72;4992895;28;20165;-64
2023/06/06 05:31:34;;;;;;;2.15;1.65;;;;;;;21.80;nan;61849.47;4992599;28;20165;-65
2023/06/06 05:34:00;;;;;;;2.88;1.77;;;;;;;21.67;nan;61867.94;5022006;28;20212;-65
2023/06/06 05:36:26;;;;;;;1.98;1.70;;;;;;;22.62;nan;61936.31;4987957;28;20246;-64
2023/06/06 05:38:52;;;;;;;2.28;2.00;;;;;;;22.98;nan;62114.28;4984031;28;20189;-64
2023/06/06 05:41:20;;;;;;;3.67;2.20;;;;;;;22.81;nan;62101.25;4988026;28;20181;-64
2023/06/06 05:43:47;;;;;;;2.85;1.90;;;;;;;22.57;nan;62102.53;4992243;28;20195;-64
2023/06/06 05:46:13;;;;;;;2.42;1.73;;;;;;;22.12;nan;62027.84;4989207;28;20310;-65
2023/06/06 05:48:38;;;;;;;2.58;1.90;;;;;;;21.50;nan;61815.41;4982042;28;20189;-64
2023/06/06 05:51:04;;;;;;;1.92;1.60;;;;;;;21.28;nan;61780.03;4991867;28;20173;-64
2023/06/06 05:53:30;;;;;;;2.72;1.65;;;;;;;20.27;nan;61610.59;4986824;28;20700;-64
2023/06/06 05:55:55;;;;;;;2.50;1.90;;;;;;;20.15;nan;61783.22;4990724;28;20227;-64
2023/06/06 05:58:20;;;;;;;3.38;1.95;;;;;;;20.11;nan;61534.84;4991811;28;20179;-63
2023/06/06 06:00:46;;;;;;;2.92;1.85;;;;;;;20.22;nan;61645.88;4990234;28;20231;-65
2023/06/06 06:03:12;;;;;;;3.25;2.00;;;;;;;20.63;nan;61835.19;4986944;28;20199;-63
2023/06/06 06:05:37;;;;;;;3.40;2.00;;;;;;;20.37;nan;61694.03;4992185;28;20177;-63
2023/06/06 06:08:06;;;;;;;5.03;2.45;;;;;;;20.16;nan;61805.69;4992156;28;20177;-64
2023/06/06 06:10:33;;;;;;;2.47;1.98;;;;;;;20.43;nan;61643.75;4985823;28;20188;-64
2023/06/06 06:12:58;;;;;;;3.97;2.30;;;;;;;20.80;nan;61718.88;4985763;28;20566;-63
2023/06/06 06:15:24;;;;;;;3.85;2.13;;;;;;;21.03;nan;61765.78;4982517;28;20192;-64
2023/06/06 06:17:50;;;;;;;2.78;2.20;;;;;;;21.27;nan;61912.00;4982549;28;20227;-63
2023/06/06 06:20:17;;;;;;;3.05;2.10;;;;;;;21.25;nan;61797.41;4984182;28;20188;-62
2023/06/06 06:22:43;;;;;;;3.53;2.20;;;;;;;21.52;nan;61861.88;4982479;28;20185;-63
2023/06/06 06:25:12;;;;;;;3.85;2.00;;;;;;;21.41;nan;62101.56;4989723;28;20185;-65
2023/06/06 06:27:39;;;;;;;2.65;1.90;;;;;;;21.28;nan;61915.75;4988054;28;20279;-64
2023/06/06 06:30:05;;;;;;;3.28;2.22;;;;;;;21.28;nan;61772.22;4992006;28;20188;-64
2023/06/06 06:32:35;;;;;;;3.13;2.22;;;;;;;21.60;nan;61863.16;4991817;28;20176;-65
2023/06/06 06:35:02;;;;;;;3.30;2.15;;;;;;;20.83;nan;61846.94;4991839;28;20184;-64
2023/06/06 06:37:31;;;;;;;3.65;2.53;;;;;;;20.31;nan;61749.50;4990660;28;20226;-64
2023/06/06 06:39:58;;;;;;;2.70;2.08;;;;;;;20.54;nan;61718.50;4990868;28;20204;-65
2023/06/06 06:42:24;;;;;;;5.07;2.10;;;;;;;20.32;nan;61797.38;4990614;28;20640;-64
2023/06/06 06:44:50;;;;;;;4.05;2.30;;;;;;;20.64;nan;61825.94;4989432;28;20173;-63
2023/06/06 06:47:16;;;;;;;4.10;2.25;;;;;;;21.12;nan;61762.41;4989002;28;20195;-63
2023/06/06 06:49:41;;;;;;;3.22;2.03;;;;;;;21.29;nan;61723.97;4989834;28;20200;-65
2023/06/06 06:52:08;;;;;;;2.58;1.95;;;;;;;21.50;nan;61813.34;4990367;28;20200;-63
2023/06/06 06:54:44;;;;;;;4.32;2.10;;;;;;;21.85;nan;61969.03;4991331;28;20591;-64
2023/06/06 06:57:09;;;;;;;4.43;2.20;;;;;;;21.86;nan;61902.53;4991371;28;20165;-65
2023/06/06 06:59:34;;;;;;;2.95;2.30;;;;;;;21.97;nan;61883.84;4991233;28;20242;-65
2023/06/06 07:02:01;;;;;;;3.20;2.13;;;;;;;22.06;nan;61867.50;4993177;28;20224;-64
2023/06/06 07:04:28;;;;;;;2.92;2.13;;;;;;;21.99;nan;62019.41;4991960;28;20208;-63
2023/06/06 07:06:54;;;;;;;3.90;2.20;;;;;;;21.90;nan;61990.91;4991815;28;20312;-63
2023/06/06 07:09:21;;;;;;;4.00;2.20;;;;;;;22.02;nan;62108.13;4992449;28;20259;-64
2023/06/06 07:11:46;;;;;;;6.18;2.40;;;;;;;22.22;nan;62021.00;4992146;28;20177;-63
2023/06/06 07:14:12;;;;;;;3.35;2.30;;;;;;;22.68;nan;61937.38;4991648;28;20211;-63
2023/06/06 07:16:37;;;;;;;4.47;2.40;;;;;;;22.75;nan;61992.78;4991690;28;20181;-64
2023/06/06 07:19:03;;;;;;;4.57;2.35;;;;;;;22.93;nan;61996.53;4991802;28;20298;-63
2023/06/06 07:21:28;;;;;;;2.45;2.20;;;;;;;22.77;nan;61968.47;4998995;28;20284;-63
2023/06/06 07:23:54;;;;;;;3.42;2.50;;;;;;;22.45;nan;62047.78;4985816;28;20184;-63
2023/06/06 07:26:20;;;;;;;6.68;2.35;;;;;;;22.84;nan;62059.81;4991980;28;20648;-63
2023/06/06 07:28:46;;;;;;;3.75;2.42;;;;;;;22.79;nan;61923.84;4991700;28;20264;-64
2023/06/06 07:31:13;;;;;;;3.38;2.10;;;;;;;22.38;nan;62222.06;4991561;28;20276;-63
2023/06/06 07:33:39;;;;;;;4.05;2.08;;;;;;;22.22;nan;61917.47;4991393;28;20688;-63
2023/06/06 07:36:06;;;;;;;2.30;1.98;;;;;;;22.02;nan;61827.63;4991564;28;20181;-63
2023/06/06 07:38:31;;;;;;;2.05;1.70;;;;;;;21.75;nan;62150.72;4991844;28;20180;-64
2023/06/06 07:40:56;;;;;;;3.17;1.60;;;;;;;22.06;nan;61894.06;4993334;28;20710;-63
2023/06/06 07:43:22;;;;;;;3.35;1.80;;;;;;;21.82;nan;61783.53;4995172;28;20212;-64
2023/06/06 07:45:47;;;;;;;1.50;1.40;;;;;;;22.23;nan;62006.53;4994954;28;20177;-64
2023/06/06 07:48:13;;;;;;;2.65;1.60;;;;;;;22.41;nan;62032.81;4995042;28;20565;-63
2023/06/06 07:50:38;;;;;;;2.00;1.60;;;;;;;22.36;nan;61949.00;4995124;28;20177;-64
2023/06/06 07:53:04;;;;;;;2.85;1.88;;;;;;;18.97;nan;61539.63;4995164;28;20196;-64
2023/06/06 07:55:31;;;;;;;1.75;1.55;;;;;;;22.41;nan;61948.91;4995314;28;20173;-64
2023/06/06 07:57:57;;;;;;;2.85;1.63;;;;;;;21.88;nan;61980.25;4995123;28;20235;-64
2023/06/06 08:00:23;;;;;;;1.83;1.55;;;;;;;21.95;nan;62111.13;4994667;28;20633;-64
2023/06/06 08:02:48;;;;;;;2.13;1.73;;;;;;;21.90;nan;61879.03;4994914;28;20185;-62
2023/06/06 08:05:14;;;;;;;1.95;1.70;;;;;;;21.53;nan;61845.38;4995277;28;20180;-64
2023/06/06 08:07:39;;;;;;;3.00;1.88;;;;;;;21.91;nan;61882.22;4994605;28;20557;-64
2023/06/06 08:10:06;;;;;;;2.33;1.52;;;;;;;22.15;nan;61917.31;4994429;28;20632;-64
2023/06/06 08:12:32;;;;;;;2.08;1.50;;;;;;;22.51;nan;61949.28;4994467;28;20263;-63
2023/06/06 08:14:57;;;;;;;2.47;1.75;;;;;;;22.84;nan;62020.72;4994313;28;20179;-64
2023/06/06 08:17:23;;;;;;;7.10;2.00;;;;;;;23.23;nan;62088.56;4994377;28;20176;-65
2023/06/06 08:19:48;;;;;;;2.45;1.80;;;;;;;22.98;nan;61981.94;4994835;28;20196;-65
2023/06/06 08:22:13;;;;;;;2.90;1.70;;;;;;;23.11;nan;62038.41;4994326;28;20558;-64
2023/06/06 08:24:41;;;;;;;2.75;1.70;;;;;;;23.03;nan;62080.88;4994100;28;20193;-64
2023/06/06 08:27:06;;;;;;;2.22;1.60;;;;;;;23.11;nan;62340.84;4994186;28;20723;-65
2023/06/06 08:29:32;;;;;;;2.47;1.80;;;;;;;23.30;nan;62028.75;4994009;28;20200;-63
2023/06/06 08:31:57;;;;;;;3.17;1.85;;;;;;;23.19;nan;62190.34;4994078;28;20179;-64
2023/06/06 08:34:23;;;;;;;3.28;1.70;;;;;;;23.13;nan;62131.34;4994055;28;20197;-64
2023/06/06 08:36:49;;;;;;;2.58;1.70;;;;;;;23.28;nan;62164.69;4994372;28;20225;-64
2023/06/06 08:39:18;;;;;;;2.72;1.67;;;;;;;23.45;nan;61982.66;4994250;28;20165;-64
2023/06/06 08:41:51;;;;;;;2.42;1.60;;;;;;;23.56;nan;62089.09;4993652;28;20173;-64
2023/06/06 08:44:19;;;;;;;2.28;1.50;;;;;;;23.79;nan;62112.09;4993761;28;20180;-64
2023/06/06 08:46:46;;;;;;;2.53;1.80;;;;;;;23.94;nan;62261.75;4994153;28;20176;-63
2023/06/06 08:49:16;;;;;;;2.90;1.65;;;;;;;23.76;nan;62383.28;4993746;28;20718;-65
2023/06/06 08:51:42;;;;;;;2.05;1.63;;;;;;;22.91;nan;62013.03;4993373;28;20173;-64
2023/06/06 08:54:08;;;;;;;2.42;1.67;;;;;;;23.39;nan;62168.84;4993550;28;20266;-64
2023/06/06 08:56:35;;;;;;;2.42;1.80;;;;;;;23.47;nan;62399.69;4993658;28;20177;-64
2023/06/06 08:59:01;;;;;;;2.55;1.77;;;;;;;23.45;nan;62055.13;5008427;28;20568;-63
2023/06/06 09:01:27;;;;;;;3.13;2.03;;;;;;;23.60;nan;62072.78;4993568;28;20311;-64
2023/06/06 09:03:53;;;;;;;3.90;2.00;;;;;;;23.75;nan;62100.28;4994187;28;20175;-63
2023/06/06 09:06:20;;;;;;;2.22;1.67;;;;;;;23.84;nan;62091.13;4993589;28;20263;-64
2023/06/06 09:08:47;;;;;;;2.00;1.50;;;;;;;23.71;nan;62077.47;4993464;28;20172;-65
2023/06/06 09:11:13;;;;;;;2.72;1.65;;;;;;;22.95;nan;61998.78;4992143;28;20593;-63
2023/06/06 09:13:42;;;;;;;3.35;1.80;;;;;;;22.76;nan;61993.94;4992970;28;20196;-64
2023/06/06 09:16:08;;;;;;;2.28;1.50;;;;;;;22.53;nan;61980.78;4993403;28;20220;-63
2023/06/06 09:18:35;;;;;;;2.05;1.60;;;;;;;22.20;nan;61990.09;4993234;28;20215;-63
2023/06/06 09:21:01;;;;;;;3.08;1.70;;;;;;;21.98;nan;61921.41;4993515;28;20177;-63
2023/06/06 09:23:30;;;;;;;2.97;1.92;;;;;;;21.99;nan;61878.88;4993169;28;20191;-63
2023/06/06 09:25:55;;;;;;;2.70;1.55;;;;;;;22.33;nan;61934.63;4992875;28;20557;-63
2023/06/06 09:28:35;;;;;;;2.83;1.75;;;;;;;22.78;nan;61927.91;4993343;28;20183;-64
2023/06/06 09:31:22;;;;;;;2.60;1.50;;;;;;;22.97;nan;62008.88;4993645;28;20172;-62
2023/06/06 09:33:49;;;;;;;3.10;1.65;;;;;;;22.96;nan;62005.13;4993220;28;20220;-64
2023/06/06 09:36:14;;;;;;;2.40;1.77;;;;;;;23.17;nan;62047.28;4991609;28;20660;-64
2023/06/06 09:38:39;;;;;;;2.78;1.70;;;;;;;22.87;nan;61987.66;4992639;28;20208;-63
2023/06/06 09:41:05;;;;;;;3.58;1.70;;;;;;;22.65;nan;62004.88;4993002;28;20180;-65
2023/06/06 09:43:34;;;;;;;2.58;1.63;;;;;;;22.64;nan;62058.41;4992788;28;20181;-65
2023/06/06 09:46:04;;;;;;;3.17;2.00;;;;;;;22.80;nan;62071.44;4992651;28;20260;-63
2023/06/06 09:48:29;;;;;;;2.00;1.50;;;;;;;22.63;nan;62080.72;4992818;28;20168;-63
2023/06/06 09:50:57;;;;;;;2.22;1.67;;;;;;;23.20;nan;62048.66;4992329;28;20180;-64
2023/06/06 09:53:24;;;;;;;2.80;1.77;;;;;;;22.93;nan;62056.47;4992631;28;20196;-63
2023/06/06 09:55:50;;;;;;;1.92;1.52;;;;;;;23.27;nan;61988.25;4992481;28;20180;-64
2023/06/06 09:58:16;;;;;;;2.25;1.33;;;;;;;23.61;nan;62123.50;4992552;28;20664;-63
2023/06/06 10:00:45;;;;;;;2.08;1.35;;;;;;;23.43;nan;62052.84;4992576;28;20303;-63
2023/06/06 10:03:18;;;;;;;3.72;1.50;;;;;;;23.76;nan;62100.88;4991446;28;20176;-62
2023/06/06 10:05:51;;;;;;;3.63;1.50;;;;;;;22.94;nan;62101.88;4992322;28;20196;-63
2023/06/06 10:08:18;;;;;;;2.28;1.63;;;;;;;23.70;nan;62133.16;4991453;28;20173;-65
2023/06/06 10:10:46;;;;;;;3.03;1.45;;;;;;;23.66;nan;62186.03;4992236;28;20176;-64
2023/06/06 10:13:19;;;;;;;4.70;1.63;;;;;;;23.89;nan;62209.63;4992789;28;20300;-63
2023/06/06 10:15:45;;;;;;;3.90;2.15;;;;;;;24.21;nan;62169.84;4992448;28;20173;-64
2023/06/06 10:18:12;;;;;;;3.20;1.88;;;;;;;24.53;nan;62179.63;4992410;28;20175;-63
2023/06/06 10:20:38;;;;;;;2.85;2.05;;;;;;;24.04;nan;62143.19;4992471;28;20172;-65
2023/06/06 10:23:03;;;;;;;2.58;1.90;;;;;;;24.01;nan;62030.13;4992447;28;20181;-63
2023/06/06 10:25:30;;;;;;;3.55;2.20;;;;;;;24.45;nan;62126.66;4991995;28;20535;-63
2023/06/06 10:27:58;;;;;;;3.13;1.75;;;;;;;24.74;nan;62229.69;4992001;28;20188;-65
2023/06/06 10:30:34;;;;;;;2.05;1.65;;;;;;;24.19;nan;62415.66;4992525;28;20308;-64
2023/06/06 10:33:28;;;;;;;2.40;1.58;;;;;;;24.43;nan;62291.59;4992524;28;20192;-64
2023/06/06 10:36:07;;;;;;;1.85;1.60;;;;;;;24.08;nan;62139.34;4992443;28;20186;-63
2023/06/06 10:38:33;;;;;;;1.50;1.40;;;;;;;23.95;nan;62224.31;4992362;28;20177;-64
2023/06/06 10:40:59;;;;;;;2.33;1.52;;;;;;;24.64;nan;62215.69;4991846;28;20180;-64
2023/06/06 10:43:34;;;;;;;2.85;1.67;;;;;;;24.94;nan;62369.63;4992259;28;20169;-63
2023/06/06 10:45:59;;;;;;;2.08;1.45;;;;;;;24.82;nan;62334.97;4992254;28;20179;-64
2023/06/06 10:48:45;;;;;;;2.22;1.42;;;;;;;24.76;nan;62229.34;4992257;28;20615;-64
2023/06/06 10:51:23;;;;;;;2.45;1.70;;;;;;;24.80;nan;62265.28;4992142;28;20244;-64
2023/06/06 10:54:15;;;;;;;2.45;1.88;;;;;;;24.67;nan;62237.41;4992202;28;20334;-64
2023/06/06 10:56:50;;;;;;;2.33;1.98;;;;;;;24.42;nan;62274.19;4992141;28;20177;-64
2023/06/06 10:59:16;;;;;;;1.75;1.40;;;;;;;24.41;nan;62163.34;4992227;28;20262;-64
2023/06/06 11:01:44;;;;;;;1.92;1.40;;;;;;;24.41;nan;62218.22;4992476;28;20676;-64
2023/06/06 11:04:26;;;;;;;2.60;1.60;;;;;;;24.48;nan;62213.69;4992153;28;20188;-66
2023/06/06 11:07:00;;;;;;;2.58;1.50;;;;;;;23.82;nan;62238.19;4991231;28;20586;-64
2023/06/06 11:09:31;;;;;;;3.63;1.67;;;;;;;23.99;nan;62124.44;4992247;28;20214;-63
2023/06/06 11:12:16;;;;;;;2.17;1.55;;;;;;;24.43;nan;62225.69;4991726;28;20564;-63
2023/06/06 11:15:25;;;;;;;2.95;1.90;;;;;;;24.85;nan;62309.63;4995867;28;20415;-64
2023/06/06 11:18:00;;;;;;;1.77;1.35;;;;;;;24.69;nan;62192.06;5003539;28;20197;-64
2023/06/06 11:20:27;;;;;;;2.20;1.67;;;;;;;24.55;nan;62260.31;4995598;28;20167;-65
2023/06/06 11:23:05;;;;;;;2.17;1.63;;;;;;;24.46;nan;62362.94;4995579;28;20187;-63
2023/06/06 11:25:32;;;;;;;1.80;1.45;;;;;;;24.23;nan;62137.63;4995669;28;20185;-63
2023/06/06 11:27:58;;;;;;;2.20;1.70;;;;;;;24.42;nan;62190.59;4995615;28;20177;-63
2023/06/06 11:30:29;;;;;;;2.05;1.60;;;;;;;24.45;nan;62335.69;4995484;28;20217;-63
2023/06/06 11:32:55;;;;;;;2.30;1.50;;;;;;;24.65;nan;62201.69;4988960;28;20262;-64
2023/06/06 11:35:21;;;;;;;2.00;1.67;;;;;;;24.55;nan;62187.69;4995112;28;20271;-64
2023/06/06 11:37:46;;;;;;;2.28;1.45;;;;;;;25.02;nan;62248.00;4995619;28;20239;-63
2023/06/06 11:40:12;;;;;;;2.45;1.50;;;;;;;25.43;nan;62566.91;4995408;28;20172;-63
2023/06/06 11:42:43;;;;;;;2.75;1.30;;;;;;;25.23;nan;62402.75;4993225;28;20177;-63
2023/06/06 11:45:15;;;;;;;1.70;1.40;;;;;;;25.05;nan;62231.06;4991570;28;20550;-64
2023/06/06 11:47:41;;;;;;;1.83;1.38;;;;;;;25.07;nan;62264.72;4994890;28;20184;-64
2023/06/06 11:50:07;;;;;;;2.75;1.77;;;;;;;25.00;nan;62258.78;4995133;28;20173;-63
2023/06/06 11:52:46;;;;;;;2.50;1.60;;;;;;;25.52;nan;62352.13;4995050;28;20176;-63
2023/06/06 11:55:12;;;;;;;2.83;1.70;;;;;;;25.59;nan;62298.81;4995579;28;20172;-63